Time;durP1;ratioP1;P1;durP2;ratioP2;P2;SDS_P1;SDS_P2;PMS_P1;PMS_P2;Temp;Humidity;BMP_temperature;BMP_pressure;BME280_temperature;BME280_humidity;BME280_pressure;Samples;Min_cycle;Max_cycle;Signal;HPM_P1;HPM_P2
2022/04/15 00:02:01;;;;;;;4.35;1.70;;;;;;;;;;5008034;28;20063;-66
2022/04/15 00:04:34;;;;;;;5.47;1.45;;;;;;;;;;5007833;28;20062;-66
2022/04/15 00:07:05;;;;;;;5.30;2.17;;;;;;;;;;4991907;28;20062;-67
2022/04/15 00:09:36;;;;;;;6.38;1.88;;;;;;;;;;5003791;28;20054;-66
2022/04/15 00:12:10;;;;;;;6.00;1.75;;;;;;;;;;4979026;28;20053;-66
2022/04/15 00:14:41;;;;;;;4.53;1.80;;;;;;;;;;4978371;28;20054;-67
2022/04/15 00:17:12;;;;;;;3.78;1.23;;;;;;;;;;4991647;28;20058;-65
2022/04/15 00:19:46;;;;;;;4.78;1.50;;;;;;;;;;4991684;28;20061;-67
2022/04/15 00:22:17;;;;;;;6.60;1.70;;;;;;;;;;4975597;28;20062;-68
2022/04/15 00:24:47;;;;;;;4.25;1.70;;;;;;;;;;4975419;28;20676;-67
2022/04/15 00:27:18;;;;;;;6.20;1.48;;;;;;;;;;4991756;28;20125;-66
2022/04/15 00:29:49;;;;;;;8.98;2.25;;;;;;;;;;4975313;28;20061;-69
2022/04/15 00:32:19;;;;;;;4.15;1.48;;;;;;;;;;5014952;28;20646;-66
2022/04/15 00:34:50;;;;;;;5.05;1.70;;;;;;;;;;5030863;28;20076;-69
2022/04/15 00:37:21;;;;;;;4.47;1.67;;;;;;;;;;5014697;28;20061;-67
2022/04/15 00:39:53;;;;;;;4.97;1.85;;;;;;;;;;5030941;28;20189;-67
2022/04/15 00:42:23;;;;;;;6.13;2.00;;;;;;;;;;5014498;28;20509;-67
2022/04/15 00:44:58;;;;;;;6.00;1.92;;;;;;;;;;5030763;28;20049;-67
2022/04/15 00:47:52;;;;;;;3.17;1.45;;;;;;;;;;5031046;28;20058;-66
2022/04/15 00:50:31;;;;;;;7.00;1.73;;;;;;;;;;4997879;28;20057;-67
2022/04/15 00:53:07;;;;;;;4.88;1.73;;;;;;;;;;5030146;28;20060;-66
2022/04/15 00:55:40;;;;;;;7.80;2.28;;;;;;;;;;5019487;28;20053;-66
2022/04/15 00:58:11;;;;;;;;;;;;;;;;;;5018577;28;20061;-66
2022/04/15 01:00:42;;;;;;;5.18;1.77;;;;;;;;;;5050442;28;19920;-68
2022/04/15 01:03:17;;;;;;;3.90;1.73;;;;;;;;;;5050390;28;20619;-67
2022/04/15 01:05:52;;;;;;;7.32;1.85;;;;;;;;;;5013688;28;20390;-67
2022/04/15 01:08:26;;;;;;;10.05;1.80;;;;;;;;;;4997206;28;20069;-67
2022/04/15 01:10:58;;;;;;;4.05;1.60;;;;;;;;;;5030122;28;20074;-67
2022/04/15 01:13:35;;;;;;;8.32;2.28;;;;;;;;;;4982188;28;20096;-67
2022/04/15 01:16:08;;;;;;;6.05;2.03;;;;;;;;;;4990766;28;20058;-67
2022/04/15 01:18:39;;;;;;;4.82;1.75;;;;;;;;;;4990396;28;20054;-67
2022/04/15 01:21:13;;;;;;;4.97;1.95;;;;;;;;;;4990893;28;20554;-67
2022/04/15 01:23:43;;;;;;;5.65;1.95;;;;;;;;;;4990385;28;20634;-67
2022/04/15 01:26:17;;;;;;;5.45;1.75;;;;;;;;;;4990598;28;20058;-67
2022/04/15 01:28:48;;;;;;;7.47;1.80;;;;;;;;;;4990206;28;20054;-68
2022/04/15 01:31:20;;;;;;;5.28;1.85;;;;;;;;;;4990469;28;20526;-67
2022/04/15 01:33:50;;;;;;;8.80;2.00;;;;;;;;;;4990278;28;20054;-68
2022/04/15 01:36:21;;;;;;;3.25;1.55;;;;;;;;;;4990372;28;20054;-67
2022/04/15 01:38:52;;;;;;;4.18;1.88;;;;;;;;;;4990213;28;20514;-68
2022/04/15 01:41:22;;;;;;;5.88;1.88;;;;;;;;;;4970929;28;20061;-67
2022/04/15 01:43:53;;;;;;;4.82;1.60;;;;;;;;;;4984125;28;20506;-67
2022/04/15 01:46:24;;;;;;;5.85;1.70;;;;;;;;;;4990382;28;20062;-67
2022/04/15 01:48:54;;;;;;;4.72;1.45;;;;;;;;;;4989955;28;20147;-67
2022/04/15 01:51:25;;;;;;;4.82;1.52;;;;;;;;;;4990362;28;20046;-68
2022/04/15 01:53:57;;;;;;;3.70;1.42;;;;;;;;;;4965753;28;20076;-67
2022/04/15 01:56:28;;;;;;;5.78;1.55;;;;;;;;;;4989795;28;20521;-67
2022/04/15 01:58:59;;;;;;;5.78;1.50;;;;;;;;;;4957792;28;20529;-67
2022/04/15 02:01:29;;;;;;;4.55;1.45;;;;;;;;;;4989850;28;20054;-67
2022/04/15 02:04:00;;;;;;;5.70;1.50;;;;;;;;;;4990015;28;20054;-67
2022/04/15 02:06:31;;;;;;;3.63;1.50;;;;;;;;;;4990033;28;20057;-67
2022/04/15 02:09:02;;;;;;;4.47;1.60;;;;;;;;;;4989834;28;20054;-67
2022/04/15 02:11:34;;;;;;;5.85;1.95;;;;;;;;;;4910570;28;20050;-67
2022/04/15 02:14:06;;;;;;;4.25;1.35;;;;;;;;;;4989131;28;20410;-67
2022/04/15 02:16:37;;;;;;;3.20;1.20;;;;;;;;;;4989864;28;20058;-68
2022/04/15 02:19:08;;;;;;;4.00;1.27;;;;;;;;;;4978651;28;20063;-67
2022/04/15 02:21:39;;;;;;;4.13;1.35;;;;;;;;;;4950791;28;20055;-67
2022/04/15 02:24:10;;;;;;;7.13;1.30;;;;;;;;;;4918984;29;20159;-68
2022/04/15 02:26:45;;;;;;;3.15;1.33;;;;;;;;;;4915962;29;20131;-67
2022/04/15 02:29:15;;;;;;;4.90;1.50;;;;;;;;;;4931820;29;20055;-67
2022/04/15 02:31:45;;;;;;;3.50;1.35;;;;;;;;;;4915841;29;20063;-67
2022/04/15 02:34:16;;;;;;;3.33;1.05;;;;;;;;;;4926340;28;20055;-68
2022/04/15 02:36:47;;;;;;;7.72;1.60;;;;;;;;;;4950926;28;20055;-67
2022/04/15 02:39:17;;;;;;;4.95;1.70;;;;;;;;;;4934588;29;20082;-67
2022/04/15 02:41:51;;;;;;;4.82;1.13;;;;;;;;;;4950822;29;20054;-67
2022/04/15 02:44:22;;;;;;;3.25;1.25;;;;;;;;;;4950707;29;20583;-67
2022/04/15 02:46:54;;;;;;;3.72;1.38;;;;;;;;;;4950811;29;20550;-67
2022/04/15 02:49:27;;;;;;;3.17;1.30;;;;;;;;;;4934610;29;20055;-67
2022/04/15 02:51:57;;;;;;;4.53;1.63;;;;;;;;;;4984822;28;20564;-67
2022/04/15 02:54:28;;;;;;;4.65;1.35;;;;;;;;;;5009043;28;20482;-67
2022/04/15 02:56:59;;;;;;;5.38;1.98;;;;;;;;;;5009017;28;20080;-68
2022/04/15 02:59:30;;;;;;;3.28;1.40;;;;;;;;;;4996590;28;20055;-67
2022/04/15 03:02:01;;;;;;;2.95;1.20;;;;;;;;;;4969739;28;20054;-68
2022/04/15 03:04:31;;;;;;;3.33;1.20;;;;;;;;;;4961637;28;20059;-68
2022/04/15 03:07:02;;;;;;;7.68;1.10;;;;;;;;;;4969953;28;20103;-67
2022/04/15 03:09:33;;;;;;;3.08;1.00;;;;;;;;;;4970075;28;20050;-67
2022/04/15 03:12:04;;;;;;;3.50;1.48;;;;;;;;;;4922329;28;20058;-67
2022/04/15 03:14:35;;;;;;;4.18;1.20;;;;;;;;;;4969870;28;20059;-67
2022/04/15 03:17:05;;;;;;;3.30;1.15;;;;;;;;;;4934489;29;20468;-67
2022/04/15 03:19:36;;;;;;;2.80;1.23;;;;;;;;;;4950129;29;20055;-67
2022/04/15 03:22:06;;;;;;;3.38;1.50;;;;;;;;;;4950188;29;20651;-67
2022/04/15 03:24:37;;;;;;;3.20;1.00;;;;;;;;;;4950459;29;20055;-67
2022/04/15 03:27:10;;;;;;;3.85;1.20;;;;;;;;;;4950123;29;20054;-67
2022/04/15 03:29:41;;;;;;;2.33;1.00;;;;;;;;;;4950147;29;20063;-68
2022/04/15 03:32:11;;;;;;;2.60;0.98;;;;;;;;;;4931123;29;20059;-68
2022/04/15 03:34:42;;;;;;;3.05;1.23;;;;;;;;;;4930756;29;20056;-67
2022/04/15 03:37:13;;;;;;;6.00;1.20;;;;;;;;;;4899467;29;20056;-67
2022/04/15 03:39:43;;;;;;;5.68;1.25;;;;;;;;;;4951688;28;20059;-67
2022/04/15 03:42:14;;;;;;;2.70;1.05;;;;;;;;;;4969427;28;20407;-67
2022/04/15 03:44:44;;;;;;;7.90;1.35;;;;;;;;;;4969583;28;20063;-67
2022/04/15 03:47:16;;;;;;;6.25;1.15;;;;;;;;;;4953270;28;20051;-67
2022/04/15 03:49:47;;;;;;;4.30;0.98;;;;;;;;;;4924387;28;20058;-68
2022/04/15 03:52:17;;;;;;;7.30;1.10;;;;;;;;;;4918105;29;20070;-67
2022/04/15 03:54:48;;;;;;;3.90;1.10;;;;;;;;;;4934404;29;20072;-67
2022/04/15 03:57:18;;;;;;;2.90;1.10;;;;;;;;;;4934266;29;20400;-67
2022/04/15 03:59:49;;;;;;;3.10;0.90;;;;;;;;;;4934592;29;20048;-67
2022/04/15 04:02:20;;;;;;;3.83;1.00;;;;;;;;;;4915021;29;20527;-67
2022/04/15 04:04:50;;;;;;;2.95;1.10;;;;;;;;;;4915576;29;20075;-67
2022/04/15 04:07:21;;;;;;;5.68;2.03;;;;;;;;;;4930715;29;20067;-68
2022/04/15 04:09:52;;;;;;;4.05;1.30;;;;;;;;;;4924111;29;20044;-67
2022/04/15 04:12:23;;;;;;;14.18;1.67;;;;;;;;;;4934654;29;20541;-67
2022/04/15 04:14:53;;;;;;;5.18;1.23;;;;;;;;;;4953187;29;20055;-67
2022/04/15 04:17:24;;;;;;;8.48;0.98;;;;;;;;;;4921422;29;20534;-67
2022/04/15 04:19:55;;;;;;;5.00;1.02;;;;;;;;;;4953072;29;20063;-68
2022/04/15 04:22:32;;;;;;;4.22;1.10;;;;;;;;;;4953198;29;20399;-68
2022/04/15 04:25:05;;;;;;;5.13;1.13;;;;;;;;;;4953141;29;20051;-67
2022/04/15 04:27:43;;;;;;;6.03;1.52;;;;;;;;;;4921129;29;20063;-67
2022/04/15 04:30:15;;;;;;;3.05;0.80;;;;;;;;;;4964942;28;20058;-67
2022/04/15 04:32:52;;;;;;;3.85;1.42;;;;;;;;;;4971702;28;20070;-67
2022/04/15 04:35:23;;;;;;;4.07;1.15;;;;;;;;;;4972132;28;20050;-68
2022/04/15 04:37:54;;;;;;;4.82;1.35;;;;;;;;;;4956311;28;20058;-67
2022/04/15 04:40:25;;;;;;;5.35;0.98;;;;;;;;;;4999450;28;20053;-67
2022/04/15 04:42:56;;;;;;;3.20;0.90;;;;;;;;;;4978685;28;20052;-67
2022/04/15 04:45:27;;;;;;;1.98;1.00;;;;;;;;;;4978427;28;20050;-68
2022/04/15 04:47:59;;;;;;;4.85;1.35;;;;;;;;;;5002024;28;20062;-67
2022/04/15 04:50:31;;;;;;;3.95;1.13;;;;;;;;;;5030734;28;20537;-67
2022/04/15 04:53:01;;;;;;;3.85;1.27;;;;;;;;;;5030894;28;20072;-67
2022/04/15 04:55:32;;;;;;;4.97;1.40;;;;;;;;;;5030510;28;20060;-69
2022/04/15 04:58:03;;;;;;;4.53;1.30;;;;;;;;;;5030429;28;20061;-67
2022/04/15 05:00:34;;;;;;;4.22;1.20;;;;;;;;;;4990592;28;20058;-67
2022/04/15 05:03:05;;;;;;;4.05;1.23;;;;;;;;;;4990879;28;20489;-69
2022/04/15 05:05:35;;;;;;;5.47;1.75;;;;;;;;;;4991123;28;20058;-67
2022/04/15 05:08:06;;;;;;;3.45;1.05;;;;;;;;;;4991158;28;20050;-67
2022/04/15 05:10:37;;;;;;;6.00;1.30;;;;;;;;;;4990635;28;20050;-67
2022/04/15 05:13:07;;;;;;;2.40;1.00;;;;;;;;;;4958337;28;20059;-67
2022/04/15 05:15:38;;;;;;;4.72;1.25;;;;;;;;;;4990809;28;20057;-67
2022/04/15 05:18:09;;;;;;;5.00;1.40;;;;;;;;;;4971078;28;20443;-66
2022/04/15 05:20:40;;;;;;;3.50;1.38;;;;;;;;;;4938909;28;20128;-67
2022/04/15 05:23:12;;;;;;;3.42;1.33;;;;;;;;;;4987213;28;20466;-67
2022/04/15 05:25:42;;;;;;;3.70;1.25;;;;;;;;;;4992589;28;20218;-67
2022/04/15 05:28:13;;;;;;;3.58;1.40;;;;;;;;;;5010232;28;20062;-67
2022/04/15 05:30:44;;;;;;;5.13;1.38;;;;;;;;;;4977683;28;20062;-67
2022/04/15 05:33:15;;;;;;;4.97;1.08;;;;;;;;;;4977409;28;20511;-68
2022/04/15 05:35:45;;;;;;;3.03;1.10;;;;;;;;;;5010139;28;20076;-67
2022/04/15 05:38:17;;;;;;;4.13;1.30;;;;;;;;;;5020636;28;20053;-67
2022/04/15 05:40:48;;;;;;;6.10;1.58;;;;;;;;;;5013957;28;20061;-67
2022/04/15 05:43:19;;;;;;;4.85;1.70;;;;;;;;;;5029832;28;20057;-67
2022/04/15 05:45:49;;;;;;;5.30;1.73;;;;;;;;;;4982005;28;20060;-67
2022/04/15 05:48:20;;;;;;;7.50;1.67;;;;;;;;;;5031784;28;20053;-67
2022/04/15 05:50:52;;;;;;;3.30;1.40;;;;;;;;;;5052174;28;20059;-67
2022/04/15 05:53:24;;;;;;;4.85;1.65;;;;;;;;;;5051669;28;20049;-67
2022/04/15 05:55:54;;;;;;;3.63;1.25;;;;;;;;;;5051665;28;20377;-68
2022/04/15 05:58:26;;;;;;;4.38;1.50;;;;;;;;;;5051797;28;20064;-68
2022/04/15 06:00:57;;;;;;;5.40;2.00;;;;;;;;;;4992919;28;20046;-67
2022/04/15 06:03:34;;;;;;;3.78;1.63;;;;;;;;;;4993172;28;20413;-67
2022/04/15 06:06:05;;;;;;;5.75;1.48;;;;;;;;;;5009757;28;20441;-68
2022/04/15 06:08:36;;;;;;;5.60;1.48;;;;;;;;;;5009634;28;20128;-68
2022/04/15 06:11:06;;;;;;;3.30;1.73;;;;;;;;;;5008981;28;20070;-68
2022/04/15 06:13:41;;;;;;;10.63;1.50;;;;;;;;;;5009341;28;20533;-67
2022/04/15 06:16:11;;;;;;;3.35;1.20;;;;;;;;;;5009416;28;20148;-67
2022/04/15 06:18:42;;;;;;;6.68;1.60;;;;;;;;;;5028473;28;20489;-67
2022/04/15 06:21:13;;;;;;;5.22;1.45;;;;;;;;;;5028761;28;20057;-67
2022/04/15 06:23:43;;;;;;;4.25;1.50;;;;;;;;;;5012973;28;20409;-68
2022/04/15 06:26:14;;;;;;;5.15;1.83;;;;;;;;;;5028818;28;20064;-67
2022/04/15 06:28:44;;;;;;;3.33;1.40;;;;;;;;;;4938027;28;20073;-67
2022/04/15 06:31:15;;;;;;;3.85;1.25;;;;;;;;;;4970298;28;20401;-68
2022/04/15 06:33:46;;;;;;;8.40;1.40;;;;;;;;;;4969909;28;20415;-67
2022/04/15 06:36:17;;;;;;;2.90;1.48;;;;;;;;;;4970191;28;20078;-67
2022/04/15 06:38:47;;;;;;;3.47;1.60;;;;;;;;;;4970159;28;20055;-67
2022/04/15 06:41:18;;;;;;;3.03;1.17;;;;;;;;;;4969678;28;20050;-67
2022/04/15 06:43:49;;;;;;;3.63;1.20;;;;;;;;;;4937858;28;20054;-67
2022/04/15 06:46:20;;;;;;;5.13;1.60;;;;;;;;;;4922692;28;20050;-68
2022/04/15 06:48:50;;;;;;;3.60;1.40;;;;;;;;;;4950480;29;20420;-68
2022/04/15 06:51:21;;;;;;;4.05;1.50;;;;;;;;;;4966828;28;20536;-68
2022/04/15 06:53:52;;;;;;;5.63;1.50;;;;;;;;;;4934694;29;20482;-67
2022/04/15 06:56:22;;;;;;;4.90;1.20;;;;;;;;;;4913191;28;20043;-67
2022/04/15 06:58:53;;;;;;;2.92;1.20;;;;;;;;;;4969644;28;20051;-68
2022/04/15 07:01:24;;;;;;;5.32;1.30;;;;;;;;;;4969963;28;20522;-68
2022/04/15 07:03:55;;;;;;;3.05;1.30;;;;;;;;;;4950383;29;20102;-68
2022/04/15 07:06:26;;;;;;;4.03;1.30;;;;;;;;;;4982087;28;20053;-68
2022/04/15 07:08:56;;;;;;;2.10;1.13;;;;;;;;;;5008755;28;20065;-67
2022/04/15 07:11:27;;;;;;;2.35;1.10;;;;;;;;;;4976520;28;20080;-67
2022/04/15 07:13:58;;;;;;;1.88;1.08;;;;;;;;;;4976134;28;20061;-67
2022/04/15 07:16:29;;;;;;;3.13;1.10;;;;;;;;;;4976202;28;20080;-67
2022/04/15 07:19:04;;;;;;;4.55;1.23;;;;;;;;;;5008607;28;20054;-67
2022/04/15 07:21:35;;;;;;;4.28;1.50;;;;;;;;;;4992371;28;20065;-68
2022/04/15 07:24:07;;;;;;;5.50;1.27;;;;;;;;;;5012719;28;20069;-68
2022/04/15 07:26:37;;;;;;;2.63;1.23;;;;;;;;;;5012542;28;20058;-67
2022/04/15 07:29:08;;;;;;;3.50;1.42;;;;;;;;;;5012470;28;20065;-68
2022/04/15 07:31:40;;;;;;;4.63;1.45;;;;;;;;;;5012538;28;20058;-69
2022/04/15 07:34:11;;;;;;;3.80;1.20;;;;;;;;;;4979226;28;21023;-67
2022/04/15 07:39:14;;;;;;;4.57;1.75;;;;;;;;;;5052044;28;20064;-67
2022/04/15 07:41:45;;;;;;;;;;;;;;;;;;5063907;28;20455;-67
2022/04/15 07:44:16;;;;;;;3.38;1.50;;;;;;;;;;5038917;28;19927;-67
2022/04/15 07:46:47;;;;;;;2.28;1.08;;;;;;;;;;4995305;28;20413;-69
2022/04/15 07:49:19;;;;;;;2.78;1.10;;;;;;;;;;5012006;28;20453;-67
2022/04/15 07:51:49;;;;;;;2.67;1.02;;;;;;;;;;4995824;28;20057;-67
2022/04/15 07:54:20;;;;;;;3.53;1.30;;;;;;;;;;5011968;28;20405;-67
2022/04/15 07:56:50;;;;;;;4.53;1.38;;;;;;;;;;4963252;28;20058;-67
2022/04/15 07:59:21;;;;;;;5.05;2.20;;;;;;;;;;5011843;28;20068;-68
2022/04/15 08:01:53;;;;;;;2.72;1.30;;;;;;;;;;5011851;28;20561;-67
2022/04/15 08:04:24;;;;;;;4.32;1.20;;;;;;;;;;4979242;28;20383;-69
2022/04/15 08:06:54;;;;;;;3.58;1.60;;;;;;;;;;4995702;28;20069;-68
2022/04/15 08:09:25;;;;;;;8.10;1.70;;;;;;;;;;4979328;28;20050;-67
2022/04/15 08:11:56;;;;;;;3.15;1.40;;;;;;;;;;4995145;28;20050;-68
2022/04/15 08:14:27;;;;;;;3.85;1.27;;;;;;;;;;4964262;28;20065;-68
2022/04/15 08:16:57;;;;;;;5.63;1.30;;;;;;;;;;4995082;28;20073;-67
2022/04/15 08:19:28;;;;;;;3.72;1.02;;;;;;;;;;5011404;28;20058;-67
2022/04/15 08:22:03;;;;;;;2.85;1.08;;;;;;;;;;4979091;28;20053;-69
2022/04/15 08:24:35;;;;;;;6.03;1.33;;;;;;;;;;4997369;28;21034;-68
2022/04/15 08:27:06;;;;;;;5.03;1.20;;;;;;;;;;4998221;28;20053;-68
2022/04/15 08:29:38;;;;;;;4.82;1.42;;;;;;;;;;5014480;28;20053;-68
2022/04/15 08:32:09;;;;;;;3.90;1.30;;;;;;;;;;5031132;28;20504;-68
2022/04/15 08:34:40;;;;;;;5.85;1.60;;;;;;;;;;4990973;28;20057;-67
2022/04/15 08:37:12;;;;;;;5.00;1.33;;;;;;;;;;4958903;28;20054;-67
2022/04/15 08:39:43;;;;;;;4.03;1.40;;;;;;;;;;4943538;28;20518;-67
2022/04/15 08:42:14;;;;;;;3.95;1.65;;;;;;;;;;4943379;28;20050;-68
2022/04/15 08:44:46;;;;;;;3.50;1.33;;;;;;;;;;4991534;28;20444;-68
2022/04/15 08:47:17;;;;;;;3.13;1.20;;;;;;;;;;4943219;28;20054;-68
2022/04/15 08:49:49;;;;;;;2.83;1.40;;;;;;;;;;4991178;28;20050;-68
2022/04/15 08:52:20;;;;;;;9.48;1.40;;;;;;;;;;4991430;28;20057;-68
2022/04/15 08:54:50;;;;;;;3.30;1.23;;;;;;;;;;4991264;28;20050;-68
2022/04/15 08:57:20;;;;;;;3.33;1.52;;;;;;;;;;4942963;28;20127;-67
2022/04/15 08:59:53;;;;;;;4.38;1.30;;;;;;;;;;4991273;28;20055;-68
2022/04/15 09:02:32;;;;;;;4.68;1.73;;;;;;;;;;4942973;28;20801;-67
2022/04/15 09:05:04;;;;;;;2.75;1.17;;;;;;;;;;5003381;28;20057;-67
2022/04/15 09:07:37;;;;;;;2.75;1.30;;;;;;;;;;4994935;28;20112;-67
2022/04/15 09:10:10;;;;;;;;;;;;;;;;;;5011446;28;20054;-67
2022/04/15 09:12:42;;;;;;;4.15;1.60;;;;;;;;;;5052269;28;19921;-67
2022/04/15 09:15:14;;;;;;;5.72;2.10;;;;;;;;;;5020980;28;20063;-67
2022/04/15 09:17:51;;;;;;;5.82;2.40;;;;;;;;;;5072416;28;20040;-68
2022/04/15 09:20:23;;;;;;;5.25;2.03;;;;;;;;;;5072221;28;20061;-67
2022/04/15 09:22:55;;;;;;;5.05;1.98;;;;;;;;;;5053726;28;20060;-68
2022/04/15 09:25:28;;;;;;;12.23;2.35;;;;;;;;;;5072175;28;20049;-67
2022/04/15 09:27:58;;;;;;;7.70;2.97;;;;;;;;;;5072708;28;20071;-67
2022/04/15 09:30:41;;;;;;;6.88;2.17;;;;;;;;;;5072264;28;20040;-68
2022/04/15 09:33:11;;;;;;;5.07;2.00;;;;;;;;;;5072361;28;20036;-67
2022/04/15 09:35:45;;;;;;;5.65;1.92;;;;;;;;;;5072051;28;20053;-68
2022/04/15 09:38:16;;;;;;;8.18;1.92;;;;;;;;;;5071899;28;20048;-67
2022/04/15 09:40:47;;;;;;;3.78;1.70;;;;;;;;;;5020298;28;20053;-67
2022/04/15 09:43:19;;;;;;;5.07;1.90;;;;;;;;;;5072021;28;20079;-68
2022/04/15 09:45:51;;;;;;;7.30;2.00;;;;;;;;;;5052546;28;20385;-67
2022/04/15 09:48:23;;;;;;;4.05;1.88;;;;;;;;;;5053356;28;20056;-68
2022/04/15 09:50:56;;;;;;;7.93;2.05;;;;;;;;;;5072113;28;20396;-68
2022/04/15 09:53:34;;;;;;;2.85;1.35;;;;;;;;;;5054714;28;20044;-68
2022/04/15 09:56:06;;;;;;;8.48;1.90;;;;;;;;;;5071915;28;20041;-68
2022/04/15 09:58:39;;;;;;;5.38;1.60;;;;;;;;;;5029139;28;20053;-67
2022/04/15 10:01:10;;;;;;;4.53;1.80;;;;;;;;;;5029875;28;20049;-68
2022/04/15 10:03:45;;;;;;;4.45;1.90;;;;;;;;;;5029340;28;20501;-68
2022/04/15 10:06:17;;;;;;;4.95;2.00;;;;;;;;;;5013855;28;20409;-68
2022/04/15 10:09:06;;;;;;;5.50;1.88;;;;;;;;;;5012798;28;20513;-67
2022/04/15 10:11:43;;;;;;;4.20;1.65;;;;;;;;;;4980665;28;20596;-68
2022/04/15 10:14:16;;;;;;;3.72;1.60;;;;;;;;;;5029232;28;20046;-67
2022/04/15 10:16:46;;;;;;;4.25;1.70;;;;;;;;;;5029186;28;20117;-68
2022/04/15 10:19:19;;;;;;;14.40;1.83;;;;;;;;;;5028683;28;20054;-68
2022/04/15 10:21:52;;;;;;;6.25;1.50;;;;;;;;;;4964832;28;20053;-68
2022/04/15 10:24:26;;;;;;;4.75;1.60;;;;;;;;;;4996338;28;20053;-67
2022/04/15 10:27:00;;;;;;;3.63;1.83;;;;;;;;;;5029314;28;20468;-67
2022/04/15 10:29:31;;;;;;;3.58;1.80;;;;;;;;;;5029009;28;20058;-68
2022/04/15 10:32:14;;;;;;;3.42;1.70;;;;;;;;;;4997007;28;20096;-68
2022/04/15 10:34:46;;;;;;;4.05;1.70;;;;;;;;;;4989420;28;20525;-68
2022/04/15 10:37:17;;;;;;;5.38;1.85;;;;;;;;;;5008333;28;20572;-68
2022/04/15 10:39:50;;;;;;;5.03;1.95;;;;;;;;;;5009377;28;20058;-67
2022/04/15 10:42:22;;;;;;;5.40;2.00;;;;;;;;;;4989669;28;20058;-68
2022/04/15 10:45:00;;;;;;;;;;;;;;;;;;4974132;28;20054;-68
2022/04/15 10:47:30;;;;;;;5.82;1.98;;;;;;;;;;4989423;28;19921;-67
2022/04/15 10:50:06;;;;;;;6.68;2.92;;;;;;;;;;4989645;28;20045;-67
2022/04/15 10:52:38;;;;;;;6.25;2.35;;;;;;;;;;4989383;28;20403;-68
2022/04/15 10:55:15;;;;;;;7.85;2.58;;;;;;;;;;4958208;28;20055;-67
2022/04/15 10:57:48;;;;;;;4.00;2.13;;;;;;;;;;4974762;28;20058;-67
2022/04/15 11:03:29;;;;;;;4.95;2.38;;;;;;;;;;4993239;28;20047;-67
2022/04/15 11:06:04;;;;;;;5.97;2.63;;;;;;;;;;4993156;28;20062;-67
2022/04/15 11:08:55;;;;;;;6.60;2.63;;;;;;;;;;4993362;28;20050;-67
2022/04/15 11:11:45;;;;;;;6.75;2.67;;;;;;;;;;4997155;28;20057;-67
2022/04/15 11:14:16;;;;;;;7.47;2.65;;;;;;;;;;4999570;28;20516;-67
2022/04/15 11:16:52;;;;;;;5.22;2.35;;;;;;;;;;4999563;28;20057;-67
2022/04/15 11:19:24;;;;;;;6.43;2.20;;;;;;;;;;5038039;28;20118;-68
2022/04/15 11:21:55;;;;;;;6.35;2.63;;;;;;;;;;5053530;28;20063;-67
2022/04/15 11:24:30;;;;;;;9.55;2.60;;;;;;;;;;5054512;28;20040;-68
2022/04/15 11:27:03;;;;;;;6.63;2.60;;;;;;;;;;5036306;28;20048;-67
2022/04/15 11:29:35;;;;;;;7.32;2.65;;;;;;;;;;5054430;28;20045;-67
2022/04/15 11:32:07;;;;;;;6.63;2.05;;;;;;;;;;5012239;28;20072;-66
2022/04/15 11:34:38;;;;;;;5.22;2.05;;;;;;;;;;5012056;28;20050;-67
2022/04/15 11:37:09;;;;;;;10.43;2.25;;;;;;;;;;4976922;28;20062;-67
2022/04/15 11:39:46;;;;;;;5.25;2.20;;;;;;;;;;4945774;28;20413;-67
2022/04/15 11:42:17;;;;;;;7.28;2.30;;;;;;;;;;4992798;28;20054;-68
2022/04/15 11:44:48;;;;;;;5.75;2.00;;;;;;;;;;4992458;28;20065;-66
2022/04/15 11:47:20;;;;;;;5.35;2.35;;;;;;;;;;4992721;28;20043;-66
2022/04/15 11:49:53;;;;;;;7.90;1.90;;;;;;;;;;4976653;28;20066;-66
2022/04/15 11:52:26;;;;;;;7.00;2.85;;;;;;;;;;4992584;28;20407;-66
2022/04/15 11:54:58;;;;;;;4.90;1.95;;;;;;;;;;4992305;28;20055;-67
2022/04/15 11:57:31;;;;;;;3.53;1.80;;;;;;;;;;4960136;28;20050;-67
2022/04/15 12:00:02;;;;;;;4.93;2.08;;;;;;;;;;4991965;28;20058;-66
2022/04/15 12:02:42;;;;;;;4.72;2.00;;;;;;;;;;4992587;28;20065;-66
2022/04/15 12:05:13;;;;;;;8.77;2.42;;;;;;;;;;4992258;28;20054;-67
2022/04/15 12:07:44;;;;;;;6.85;2.63;;;;;;;;;;4992484;28;20066;-67
2022/04/15 12:10:15;;;;;;;6.18;2.38;;;;;;;;;;4970398;28;20441;-67
2022/04/15 12:12:46;;;;;;;8.02;2.70;;;;;;;;;;5031468;28;20052;-67
2022/04/15 12:15:17;;;;;;;6.05;2.72;;;;;;;;;;4982113;28;20486;-67
2022/04/15 12:17:49;;;;;;;4.82;1.92;;;;;;;;;;5031378;28;20041;-66
2022/04/15 12:20:19;;;;;;;4.78;2.33;;;;;;;;;;4991118;28;20545;-67
2022/04/15 12:22:50;;;;;;;6.07;1.73;;;;;;;;;;4972289;28;20475;-67
2022/04/15 12:25:25;;;;;;;3.05;1.30;;;;;;;;;;4972402;28;20527;-66
2022/04/15 12:29:47;;;;;;;5.03;1.60;;;;;;;;;;4952614;28;20047;-66
2022/04/15 12:31:00;;;;;;;6.05;1.67;;;;;;;;;;4952880;28;20423;-66
2022/04/15 12:33:31;;;;;;;4.85;1.92;;;;;;;;;;4952566;28;20043;-67
2022/04/15 12:36:04;;;;;;;2.90;0.90;;;;;;;;;;4905650;28;20404;-67
2022/04/15 12:39:02;;;;;;;5.05;1.80;;;;;;;;;;4952561;28;20055;-67
2022/04/15 12:41:43;;;;;;;3.47;1.10;;;;;;;;;;4952760;28;20059;-67
2022/04/15 12:44:31;;;;;;;2.72;1.30;;;;;;;;;;4962700;28;20051;-67
2022/04/15 12:47:03;;;;;;;3.20;1.30;;;;;;;;;;4971999;28;20066;-67
2022/04/15 12:49:37;;;;;;;2.15;0.98;;;;;;;;;;4972177;28;20518;-67
2022/04/15 12:52:12;;;;;;;1.40;0.68;;;;;;;;;;4971722;28;20122;-66
2022/04/15 12:55:01;;;;;;;2.10;0.90;;;;;;;;;;4971835;28;20070;-66
2022/04/15 12:57:34;;;;;;;2.75;1.15;;;;;;;;;;4977646;28;20054;-66
2022/04/15 13:00:05;;;;;;;;;;;;;;;;;;4988372;28;20046;-66
2022/04/15 13:02:35;;;;;;;3.47;1.38;;;;;;;;;;4991008;28;19928;-66
2022/04/15 13:05:07;;;;;;;5.95;1.63;;;;;;;;;;4991127;28;20058;-66
2022/04/15 13:07:38;;;;;;;;;;;;;;;;;;4991715;28;20080;-66
2022/04/15 13:10:10;;;;;;;3.45;1.50;;;;;;;;;;4990917;28;19922;-67
2022/04/15 13:13:01;;;;;;;5.78;2.97;;;;;;;;;;4933029;29;20097;-66
2022/04/15 13:15:32;;;;;;;3.28;1.45;;;;;;;;;;4932716;29;20511;-65
2022/04/15 13:18:04;;;;;;;3.70;1.40;;;;;;;;;;4933025;29;20059;-67
2022/04/15 13:20:36;;;;;;;3.60;1.45;;;;;;;;;;4958883;28;20457;-65
2022/04/15 13:23:06;;;;;;;4.38;1.58;;;;;;;;;;4971428;28;20522;-66
2022/04/15 13:25:37;;;;;;;3.95;2.10;;;;;;;;;;4974496;28;20059;-66
2022/04/15 13:28:08;;;;;;;3.22;0.90;;;;;;;;;;4990606;28;20116;-65
2022/04/15 13:30:42;;;;;;;5.60;1.42;;;;;;;;;;4990672;28;20104;-66
2022/04/15 13:33:13;;;;;;;3.05;0.95;;;;;;;;;;4951465;29;20050;-67
2022/04/15 13:35:43;;;;;;;2.10;0.63;;;;;;;;;;4932771;29;20056;-66
2022/04/15 13:38:14;;;;;;;7.63;1.33;;;;;;;;;;4932337;29;20060;-66
2022/04/15 13:40:46;;;;;;;2.22;0.40;;;;;;;;;;4946616;29;20063;-67
2022/04/15 13:43:16;;;;;;;7.40;2.35;;;;;;;;;;4951627;29;20593;-66
2022/04/15 13:45:47;;;;;;;6.97;2.10;;;;;;;;;;4951613;29;20617;-68
2022/04/15 13:48:18;;;;;;;5.00;1.65;;;;;;;;;;4935577;29;20553;-67
2022/04/15 13:50:49;;;;;;;9.00;2.60;;;;;;;;;;4965067;28;20731;-66
2022/04/15 13:58:59;;;;;;;2.83;1.63;;;;;;;;;;4951321;29;20055;-66
2022/04/15 14:01:32;;;;;;;2.00;0.75;;;;;;;;;;4934907;29;20059;-66
2022/04/15 14:04:07;;;;;;;2.38;1.13;;;;;;;;;;4913002;29;20563;-67
2022/04/15 14:06:42;;;;;;;6.43;2.42;;;;;;;;;;4912907;29;20056;-66
2022/04/15 14:09:16;;;;;;;7.68;2.47;;;;;;;;;;4893931;29;20529;-66
2022/04/15 14:11:48;;;;;;;12.75;7.65;;;;;;;;;;4861708;29;20044;-66
2022/04/15 14:14:19;;;;;;;4.35;1.23;;;;;;;;;;4911094;29;20064;-67
2022/04/15 14:16:49;;;;;;;3.63;1.00;;;;;;;;;;4912763;29;20078;-66
2022/04/15 14:19:20;;;;;;;4.93;2.22;;;;;;;;;;4866066;29;20063;-67
2022/04/15 14:21:51;;;;;;;4.05;1.88;;;;;;;;;;4912896;29;20516;-66
2022/04/15 14:24:22;;;;;;;2.42;0.60;;;;;;;;;;4913048;29;20492;-66
2022/04/15 14:26:52;;;;;;;1.30;0.57;;;;;;;;;;4912364;29;20048;-66
2022/04/15 14:29:23;;;;;;;2.40;1.08;;;;;;;;;;4912755;29;20060;-68
2022/04/15 14:31:59;;;;;;;2.67;0.88;;;;;;;;;;4912277;29;20425;-67
2022/04/15 14:34:31;;;;;;;2.50;0.77;;;;;;;;;;4912733;29;20520;-67
2022/04/15 14:37:02;;;;;;;2.28;1.13;;;;;;;;;;4912643;29;20056;-66
2022/04/15 14:39:32;;;;;;;4.50;0.70;;;;;;;;;;4853381;29;20166;-66
2022/04/15 14:42:03;;;;;;;5.57;1.00;;;;;;;;;;4906589;29;20071;-67
2022/04/15 14:44:34;;;;;;;2.35;1.02;;;;;;;;;;4940690;28;20503;-67
2022/04/15 14:47:05;;;;;;;2.45;0.60;;;;;;;;;;4981277;28;20069;-67
2022/04/15 14:49:36;;;;;;;3.53;1.67;;;;;;;;;;5012029;28;20054;-68
2022/04/15 14:52:08;;;;;;;6.57;1.00;;;;;;;;;;4995838;28;20054;-66
2022/04/15 14:54:38;;;;;;;2.55;1.35;;;;;;;;;;5028973;28;20054;-67
2022/04/15 14:57:10;;;;;;;3.17;1.52;;;;;;;;;;5012603;28;20064;-68
2022/04/15 14:59:40;;;;;;;;;;;;;;;;;;5029311;28;20401;-67
2022/04/15 15:02:11;;;;;;;1.92;0.73;;;;;;;;;;4969760;28;19929;-66
2022/04/15 15:04:42;;;;;;;9.20;3.80;;;;;;;;;;4903972;29;20063;-66
2022/04/15 15:07:20;;;;;;;2.83;1.40;;;;;;;;;;4912484;29;20061;-67
2022/04/15 15:09:53;;;;;;;2.17;0.70;;;;;;;;;;4912664;29;20049;-66
2022/04/15 15:12:24;;;;;;;3.78;2.00;;;;;;;;;;4893274;29;20055;-66
2022/04/15 15:14:56;;;;;;;3.70;1.27;;;;;;;;;;4861984;29;20049;-66
2022/04/15 15:17:26;;;;;;;2.72;0.90;;;;;;;;;;4862673;29;20060;-66
2022/04/15 15:19:57;;;;;;;5.88;3.17;;;;;;;;;;4893278;29;20520;-66
2022/04/15 15:22:28;;;;;;;3.00;1.42;;;;;;;;;;4893451;29;20079;-67
2022/04/15 15:30:45;;;;;;;2.70;0.93;;;;;;;;;;4874706;29;20057;-67
2022/04/15 15:33:17;;;;;;;3.05;1.00;;;;;;;;;;4875078;29;20061;-67